CFE011 EDDB-EGLC
Flight info
| Callsign | CFE011 |
|---|---|
| Flight time | N/A |
| Altitude | 36000 |
| Route | SUKIP3Q SUKIP Y206 BUREL/N0457F360 P203 HLZ L980 ROBEG DCT AMSAN DCT RKN DCT ODVIL DCT GALSO Q63 SUMUM |
| Aircraft | E190/M-SDE3GILORVW/S |
Departure
| Time | 2026-05-04 21:46 |
|---|---|
| Airport | Berlin Brandenburg Airport (EDDB) |
Arrival
| Time | N/A |
|---|---|
| Airport | London City Airport (EGLC) |
| Time | Latitude | Longitude | Altitude | Speed | Heading |
|---|---|---|---|---|---|
| 2026-05-04 21:19 | 52.35858 | 13.50167 | 148 ft | 0 kts | 69° |
| 2026-05-04 21:35 | 52.35851 | 13.50137 | 147 ft | 4 kts | 69° |
| 2026-05-04 21:35 | 52.35843 | 13.50105 | 147 ft | 3 kts | 68° |
| 2026-05-04 21:35 | 52.35831 | 13.50066 | 148 ft | 4 kts | 57° |
| 2026-05-04 21:36 | 52.35816 | 13.50030 | 151 ft | 4 kts | 67° |
| 2026-05-04 21:36 | 52.35808 | 13.50016 | 149 ft | 3 kts | 159° |
| 2026-05-04 21:36 | 52.35828 | 13.50003 | 149 ft | 1 kts | 159° |
| 2026-05-04 21:36 | 52.35829 | 13.50003 | 149 ft | 0 kts | 159° |
| 2026-05-04 21:38 | 52.35822 | 13.50008 | 149 ft | 2 kts | 152° |
| 2026-05-04 21:38 | 52.35811 | 13.50026 | 152 ft | 3 kts | 131° |
| 2026-05-04 21:39 | 52.35790 | 13.50063 | 148 ft | 6 kts | 136° |
| 2026-05-04 21:39 | 52.35750 | 13.50100 | 148 ft | 7 kts | 159° |
| 2026-05-04 21:39 | 52.35698 | 13.50125 | 148 ft | 8 kts | 178° |
| 2026-05-04 21:39 | 52.35644 | 13.50065 | 147 ft | 11 kts | 240° |
| 2026-05-04 21:40 | 52.35613 | 13.49946 | 147 ft | 12 kts | 249° |
| 2026-05-04 21:40 | 52.35581 | 13.49809 | 147 ft | 13 kts | 249° |
| 2026-05-04 21:40 | 52.35546 | 13.49664 | 147 ft | 14 kts | 249° |
| 2026-05-04 21:40 | 52.35508 | 13.49505 | 147 ft | 16 kts | 248° |
| 2026-05-04 21:41 | 52.35466 | 13.49337 | 147 ft | 17 kts | 248° |
| 2026-05-04 21:41 | 52.35421 | 13.49158 | 147 ft | 18 kts | 248° |
| 2026-05-04 21:41 | 52.35377 | 13.48967 | 147 ft | 18 kts | 253° |
| 2026-05-04 21:41 | 52.35333 | 13.48774 | 147 ft | 18 kts | 248° |
| 2026-05-04 21:42 | 52.35285 | 13.48579 | 147 ft | 19 kts | 249° |
| 2026-05-04 21:42 | 52.35238 | 13.48376 | 148 ft | 19 kts | 249° |
| 2026-05-04 21:42 | 52.35190 | 13.48166 | 148 ft | 20 kts | 249° |
| 2026-05-04 21:42 | 52.35141 | 13.47951 | 148 ft | 20 kts | 250° |
| 2026-05-04 21:43 | 52.35092 | 13.47729 | 149 ft | 21 kts | 250° |
| 2026-05-04 21:43 | 52.35037 | 13.47508 | 152 ft | 21 kts | 242° |
| 2026-05-04 21:43 | 52.34985 | 13.47307 | 149 ft | 18 kts | 248° |
| 2026-05-04 21:43 | 52.34941 | 13.47127 | 150 ft | 17 kts | 248° |
| 2026-05-04 21:44 | 52.34897 | 13.46942 | 150 ft | 18 kts | 249° |
| 2026-05-04 21:44 | 52.34854 | 13.46765 | 150 ft | 13 kts | 245° |
| 2026-05-04 21:44 | 52.34772 | 13.46734 | 150 ft | 12 kts | 163° |
| 2026-05-04 21:44 | 52.34715 | 13.46766 | 153 ft | 7 kts | 160° |
| 2026-05-04 21:45 | 52.34676 | 13.46789 | 155 ft | 5 kts | 160° |
| 2026-05-04 21:45 | 52.34640 | 13.46815 | 156 ft | 6 kts | 155° |
| 2026-05-04 21:45 | 52.34594 | 13.46867 | 158 ft | 10 kts | 131° |
| 2026-05-04 21:45 | 52.34580 | 13.46995 | 159 ft | 14 kts | 73° |
| 2026-05-04 21:46 | 52.34640 | 13.47241 | 157 ft | 46 kts | 68° |
| 2026-05-04 21:46 | 52.34844 | 13.48084 | 159 ft | 112 kts | 68° |
| 2026-05-04 21:46 | 52.35201 | 13.49565 | 183 ft | 164 kts | 69° |
| 2026-05-04 21:46 | 52.35609 | 13.51439 | 780 ft | 180 kts | 73° |
| 2026-05-04 21:47 | 52.35817 | 13.53563 | 1343 ft | 203 kts | 81° |
| 2026-05-04 21:47 | 52.35927 | 13.56090 | 1370 ft | 252 kts | 95° |
| 2026-05-04 21:47 | 52.35305 | 13.58956 | 2024 ft | 269 kts | 118° |
| 2026-05-04 21:47 | 52.34081 | 13.61191 | 3299 ft | 263 kts | 149° |
| 2026-05-04 21:48 | 52.32373 | 13.61799 | 4535 ft | 250 kts | 192° |
| 2026-05-04 21:48 | 52.30831 | 13.60476 | 5230 ft | 260 kts | 231° |
| 2026-05-04 21:48 | 52.30010 | 13.57862 | 6132 ft | 260 kts | 251° |
| 2026-05-04 21:48 | 52.29604 | 13.54977 | 6996 ft | 262 kts | 257° |
| 2026-05-04 21:49 | 52.29055 | 13.52125 | 7782 ft | 264 kts | 247° |
| 2026-05-04 21:49 | 52.28240 | 13.49424 | 8574 ft | 266 kts | 243° |
| 2026-05-04 21:49 | 52.27633 | 13.46576 | 9342 ft | 269 kts | 259° |
| 2026-05-04 21:49 | 52.27461 | 13.43612 | 10086 ft | 273 kts | 265° |
| 2026-05-04 21:50 | 52.27362 | 13.40487 | 10762 ft | 277 kts | 265° |
| 2026-05-04 21:50 | 52.27226 | 13.37336 | 11492 ft | 280 kts | 264° |
| 2026-05-04 21:50 | 52.27049 | 13.34148 | 12241 ft | 284 kts | 263° |
| 2026-05-04 21:50 | 52.26850 | 13.30920 | 13034 ft | 287 kts | 263° |
| 2026-05-04 21:51 | 52.26645 | 13.27652 | 13839 ft | 291 kts | 262° |
| 2026-05-04 21:51 | 52.26429 | 13.24358 | 14596 ft | 293 kts | 260° |
| 2026-05-04 21:51 | 52.25851 | 13.21097 | 14999 ft | 309 kts | 242° |
| 2026-05-04 21:51 | 52.24767 | 13.17984 | 15537 ft | 319 kts | 239° |
| 2026-05-04 21:52 | 52.23631 | 13.14849 | 16333 ft | 321 kts | 239° |
| 2026-05-04 21:52 | 52.22487 | 13.11700 | 17125 ft | 324 kts | 239° |
| 2026-05-04 21:52 | 52.21723 | 13.09604 | 17632 ft | 326 kts | 239° |
| 2026-05-04 21:52 | 52.20554 | 13.06414 | 18382 ft | 329 kts | 239° |
| 2026-05-04 21:53 | 52.19374 | 13.03202 | 19046 ft | 332 kts | 239° |
| 2026-05-04 21:53 | 52.18172 | 12.99956 | 19713 ft | 336 kts | 238° |
| 2026-05-04 21:53 | 52.16967 | 12.96663 | 20364 ft | 340 kts | 242° |
| 2026-05-04 21:53 | 52.16178 | 12.93017 | 20952 ft | 345 kts | 255° |
| 2026-05-04 21:54 | 52.15629 | 12.89193 | 21540 ft | 349 kts | 255° |
| 2026-05-04 21:54 | 52.15072 | 12.85332 | 22161 ft | 351 kts | 255° |
| 2026-05-04 21:54 | 52.14527 | 12.81528 | 22707 ft | 354 kts | 256° |
| 2026-05-04 21:54 | 52.13969 | 12.77609 | 23263 ft | 358 kts | 256° |
| 2026-05-04 21:55 | 52.13417 | 12.73587 | 23772 ft | 361 kts | 259° |
| 2026-05-04 21:55 | 52.13385 | 12.69540 | 24269 ft | 366 kts | 277° |
| 2026-05-04 21:55 | 52.14190 | 12.65590 | 24832 ft | 372 kts | 295° |
| 2026-05-04 21:55 | 52.15756 | 12.62184 | 25353 ft | 381 kts | 311° |
| 2026-05-04 21:56 | 52.17945 | 12.58801 | 25937 ft | 383 kts | 313° |
| 2026-05-04 21:56 | 52.19926 | 12.55864 | 26430 ft | 385 kts | 314° |
| 2026-05-04 21:56 | 52.21942 | 12.52969 | 26904 ft | 387 kts | 314° |
| 2026-05-04 21:56 | 52.23993 | 12.50094 | 27372 ft | 389 kts | 314° |
| 2026-05-04 21:57 | 52.25745 | 12.46799 | 27756 ft | 383 kts | 296° |
| 2026-05-04 21:57 | 52.26721 | 12.42813 | 28215 ft | 377 kts | 281° |
| 2026-05-04 21:57 | 52.27357 | 12.38655 | 28596 ft | 379 kts | 280° |
| 2026-05-04 21:57 | 52.27972 | 12.34445 | 28998 ft | 381 kts | 280° |
| 2026-05-04 21:58 | 52.28570 | 12.30215 | 29423 ft | 382 kts | 279° |
| 2026-05-04 21:58 | 52.29155 | 12.25989 | 29822 ft | 384 kts | 279° |
| 2026-05-04 21:58 | 52.29739 | 12.21715 | 30191 ft | 385 kts | 279° |
| 2026-05-04 21:58 | 52.30318 | 12.17442 | 30482 ft | 387 kts | 279° |
| 2026-05-04 21:59 | 52.30897 | 12.13129 | 30769 ft | 389 kts | 279° |
| 2026-05-04 21:59 | 52.31476 | 12.08799 | 31053 ft | 391 kts | 279° |
| 2026-05-04 21:59 | 52.32054 | 12.04448 | 31318 ft | 393 kts | 279° |
| 2026-05-04 21:59 | 52.32631 | 12.00071 | 31571 ft | 394 kts | 279° |
| 2026-05-04 22:00 | 52.33208 | 11.95671 | 31840 ft | 396 kts | 278° |
| 2026-05-04 22:00 | 52.33773 | 11.91341 | 32141 ft | 395 kts | 278° |
| 2026-05-04 22:00 | 52.34337 | 11.86935 | 32380 ft | 395 kts | 276° |
| 2026-05-04 22:00 | 52.34576 | 11.82479 | 32662 ft | 392 kts | 270° |
| 2026-05-04 22:01 | 52.34692 | 11.78039 | 32985 ft | 390 kts | 269° |
| 2026-05-04 22:01 | 52.34788 | 11.73600 | 33262 ft | 390 kts | 269° |
| 2026-05-04 22:01 | 52.34880 | 11.69171 | 33541 ft | 390 kts | 269° |
| 2026-05-04 22:01 | 52.34970 | 11.64746 | 33809 ft | 389 kts | 269° |
| 2026-05-04 22:02 | 52.35059 | 11.60323 | 34070 ft | 389 kts | 269° |
| 2026-05-04 22:02 | 52.35148 | 11.55886 | 34268 ft | 390 kts | 269° |
| 2026-05-04 22:02 | 52.35235 | 11.51450 | 34467 ft | 390 kts | 269° |
| 2026-05-04 22:02 | 52.35320 | 11.47014 | 34672 ft | 391 kts | 269° |
| 2026-05-04 22:03 | 52.35403 | 11.42584 | 34952 ft | 389 kts | 269° |
| 2026-05-04 22:03 | 52.35486 | 11.38153 | 35122 ft | 390 kts | 269° |
| 2026-05-04 22:03 | 52.35566 | 11.33712 | 35306 ft | 391 kts | 269° |
| 2026-05-04 22:03 | 52.35644 | 11.29257 | 35501 ft | 392 kts | 269° |
| 2026-05-04 22:04 | 52.35721 | 11.24803 | 35697 ft | 392 kts | 269° |
| 2026-05-04 22:04 | 52.35795 | 11.20402 | 35893 ft | 392 kts | 269° |
| 2026-05-04 22:04 | 52.35869 | 11.15969 | 36119 ft | 392 kts | 269° |
| 2026-05-04 22:05 | 52.36012 | 11.06868 | 36018 ft | 404 kts | 269° |
| 2026-05-04 22:05 | 52.36151 | 10.97603 | 35977 ft | 414 kts | 269° |
| 2026-05-04 22:06 | 52.36289 | 10.88159 | 35989 ft | 416 kts | 269° |
| 2026-05-04 22:06 | 52.36247 | 10.78716 | 35999 ft | 413 kts | 259° |
| 2026-05-04 22:07 | 52.35188 | 10.69479 | 35985 ft | 413 kts | 258° |
| 2026-05-04 22:07 | 52.34079 | 10.60260 | 35989 ft | 413 kts | 257° |
| 2026-05-04 22:08 | 52.32959 | 10.51033 | 35992 ft | 413 kts | 257° |
| 2026-05-04 22:08 | 52.31835 | 10.41825 | 35977 ft | 414 kts | 257° |
| 2026-05-04 22:09 | 52.30702 | 10.32613 | 35992 ft | 412 kts | 257° |
| 2026-05-04 22:09 | 52.29573 | 10.23493 | 35991 ft | 412 kts | 257° |
| 2026-05-04 22:10 | 52.28422 | 10.14259 | 35988 ft | 412 kts | 257° |
| 2026-05-04 22:10 | 52.27278 | 10.05141 | 35980 ft | 413 kts | 257° |
| 2026-05-04 22:11 | 52.26117 | 9.95946 | 35978 ft | 413 kts | 257° |
| 2026-05-04 22:11 | 52.25143 | 9.86725 | 35990 ft | 414 kts | 264° |
| 2026-05-04 22:12 | 52.24860 | 9.77326 | 35970 ft | 414 kts | 265° |
| 2026-05-04 22:12 | 52.24601 | 9.67919 | 35971 ft | 415 kts | 265° |
| 2026-05-04 22:13 | 52.24340 | 9.58511 | 35971 ft | 415 kts | 265° |
| 2026-05-04 22:13 | 52.24071 | 9.49116 | 35967 ft | 415 kts | 264° |
| 2026-05-04 22:14 | 52.23793 | 9.39709 | 35968 ft | 415 kts | 264° |
| 2026-05-04 22:14 | 52.23512 | 9.30365 | 35963 ft | 415 kts | 264° |
| 2026-05-04 22:15 | 52.23224 | 9.20969 | 35970 ft | 415 kts | 264° |
| 2026-05-04 22:15 | 52.22940 | 9.11566 | 35976 ft | 415 kts | 264° |
| 2026-05-04 22:16 | 52.22646 | 9.02165 | 35964 ft | 415 kts | 264° |
| 2026-05-04 22:16 | 52.22345 | 8.92766 | 35979 ft | 415 kts | 264° |
| 2026-05-04 22:17 | 52.22037 | 8.83354 | 35964 ft | 416 kts | 264° |
| 2026-05-04 22:17 | 52.21720 | 8.73938 | 35965 ft | 416 kts | 264° |
| 2026-05-04 22:18 | 52.21395 | 8.64519 | 35961 ft | 416 kts | 264° |
| 2026-05-04 22:18 | 52.21064 | 8.55103 | 35964 ft | 415 kts | 263° |
| 2026-05-04 22:19 | 52.20725 | 8.45693 | 35972 ft | 416 kts | 263° |
| 2026-05-04 22:19 | 52.20380 | 8.36341 | 35948 ft | 417 kts | 263° |
| 2026-05-04 22:20 | 52.20025 | 8.26909 | 35968 ft | 418 kts | 263° |
| 2026-05-04 22:20 | 52.19662 | 8.17436 | 35966 ft | 419 kts | 263° |
| 2026-05-04 22:21 | 52.19291 | 8.07953 | 35965 ft | 419 kts | 263° |
| 2026-05-04 22:21 | 52.18911 | 7.98475 | 35968 ft | 419 kts | 263° |
| 2026-05-04 22:22 | 52.18524 | 7.88995 | 35984 ft | 419 kts | 263° |
| 2026-05-04 22:22 | 52.18197 | 7.81103 | 35972 ft | 421 kts | 263° |
| 2026-05-04 22:23 | 52.17792 | 7.71593 | 35966 ft | 421 kts | 263° |
| 2026-05-04 22:23 | 52.17382 | 7.62064 | 35969 ft | 421 kts | 263° |
| 2026-05-04 22:24 | 52.16965 | 7.52549 | 35971 ft | 421 kts | 263° |
| 2026-05-04 22:24 | 52.16539 | 7.43018 | 35975 ft | 421 kts | 263° |
| 2026-05-04 22:25 | 52.16109 | 7.33505 | 35974 ft | 422 kts | 263° |
| 2026-05-04 22:25 | 52.15671 | 7.23946 | 35969 ft | 423 kts | 262° |
| 2026-05-04 22:26 | 52.15223 | 7.14402 | 35967 ft | 423 kts | 262° |
| 2026-05-04 22:26 | 52.14757 | 7.04871 | 35972 ft | 423 kts | 262° |
| 2026-05-04 22:27 | 52.14286 | 6.95324 | 35964 ft | 423 kts | 262° |
| 2026-05-04 22:27 | 52.13814 | 6.85790 | 35952 ft | 424 kts | 262° |
| 2026-05-04 22:28 | 52.13334 | 6.76207 | 35965 ft | 425 kts | 262° |
| 2026-05-04 22:28 | 52.12562 | 6.66741 | 35975 ft | 425 kts | 258° |
| 2026-05-04 22:29 | 52.11648 | 6.57243 | 35966 ft | 424 kts | 258° |
| 2026-05-04 22:29 | 52.10778 | 6.47743 | 35972 ft | 425 kts | 259° |
| 2026-05-04 22:30 | 52.09911 | 6.38239 | 35983 ft | 425 kts | 259° |
| 2026-05-04 22:30 | 52.09033 | 6.28704 | 35970 ft | 427 kts | 259° |
| 2026-05-04 22:31 | 52.08146 | 6.19142 | 35969 ft | 428 kts | 259° |
| 2026-05-04 22:31 | 52.07253 | 6.09622 | 35968 ft | 428 kts | 259° |
| 2026-05-04 22:32 | 52.06350 | 6.00068 | 35966 ft | 428 kts | 259° |
| 2026-05-04 22:32 | 52.05438 | 5.90509 | 35969 ft | 428 kts | 258° |
| 2026-05-04 22:33 | 52.04516 | 5.80932 | 35969 ft | 430 kts | 259° |
| 2026-05-04 22:33 | 52.03585 | 5.71332 | 35967 ft | 431 kts | 259° |
| 2026-05-04 22:34 | 52.02644 | 5.61720 | 35973 ft | 431 kts | 259° |
| 2026-05-04 22:34 | 52.01694 | 5.52108 | 35970 ft | 431 kts | 259° |
| 2026-05-04 22:35 | 52.00743 | 5.42564 | 35971 ft | 431 kts | 258° |
| 2026-05-04 22:35 | 51.99777 | 5.32951 | 35969 ft | 432 kts | 259° |
| 2026-05-04 22:36 | 51.98801 | 5.23310 | 35978 ft | 433 kts | 259° |
| 2026-05-04 22:36 | 51.97814 | 5.13671 | 35971 ft | 433 kts | 259° |
| 2026-05-04 22:37 | 51.96821 | 5.04026 | 35978 ft | 433 kts | 259° |
| 2026-05-04 22:37 | 51.95819 | 4.94372 | 35975 ft | 433 kts | 259° |
| 2026-05-04 22:38 | 51.94818 | 4.84805 | 35969 ft | 435 kts | 259° |
| 2026-05-04 22:38 | 51.93821 | 4.75338 | 35971 ft | 435 kts | 259° |
| 2026-05-04 22:39 | 51.92792 | 4.65676 | 35994 ft | 436 kts | 259° |
| 2026-05-04 22:39 | 51.91759 | 4.55981 | 35994 ft | 436 kts | 259° |
| 2026-05-04 22:40 | 51.90711 | 4.46317 | 35993 ft | 436 kts | 259° |
| 2026-05-04 22:40 | 51.89655 | 4.36662 | 35992 ft | 436 kts | 259° |
| 2026-05-04 22:41 | 51.88600 | 4.27006 | 35994 ft | 436 kts | 259° |
| 2026-05-04 22:41 | 51.87542 | 4.17352 | 35987 ft | 436 kts | 258° |
| 2026-05-04 22:42 | 51.86463 | 4.07708 | 35991 ft | 436 kts | 258° |
| 2026-05-04 22:42 | 51.85391 | 3.98055 | 35985 ft | 435 kts | 258° |
| 2026-05-04 22:43 | 51.84298 | 3.88429 | 36002 ft | 436 kts | 258° |
| 2026-05-04 22:43 | 51.82980 | 3.78921 | 35994 ft | 434 kts | 254° |
| 2026-05-04 22:44 | 51.81440 | 3.69445 | 35706 ft | 431 kts | 255° |
| 2026-05-04 22:44 | 51.80718 | 3.64801 | 35290 ft | 420 kts | 255° |
| 2026-05-04 22:44 | 51.80023 | 3.60281 | 34898 ft | 410 kts | 255° |
| 2026-05-04 22:44 | 51.79344 | 3.55856 | 34529 ft | 400 kts | 255° |
| 2026-05-04 22:45 | 51.78680 | 3.51551 | 34162 ft | 390 kts | 255° |
| 2026-05-04 22:45 | 51.77394 | 3.43244 | 33388 ft | 373 kts | 255° |
| 2026-05-04 22:45 | 51.76768 | 3.39218 | 33006 ft | 369 kts | 254° |
| 2026-05-04 22:46 | 51.76143 | 3.35214 | 32556 ft | 376 kts | 254° |
| 2026-05-04 22:46 | 51.75485 | 3.31018 | 32035 ft | 385 kts | 254° |
| 2026-05-04 22:46 | 51.74831 | 3.26847 | 31534 ft | 389 kts | 254° |
| 2026-05-04 22:46 | 51.74165 | 3.22604 | 31020 ft | 390 kts | 253° |
| 2026-05-04 22:47 | 51.73499 | 3.18358 | 30488 ft | 392 kts | 255° |
| 2026-05-04 22:47 | 51.73036 | 3.14000 | 29948 ft | 395 kts | 259° |
| 2026-05-04 22:47 | 51.72647 | 3.09600 | 29332 ft | 397 kts | 259° |
| 2026-05-04 22:47 | 51.72266 | 3.05180 | 28732 ft | 398 kts | 259° |
| 2026-05-04 22:48 | 51.71884 | 3.00766 | 28136 ft | 397 kts | 260° |
| 2026-05-04 22:48 | 51.71500 | 2.96358 | 27549 ft | 398 kts | 260° |
| 2026-05-04 22:48 | 51.71113 | 2.91945 | 26970 ft | 396 kts | 260° |
| 2026-05-04 22:48 | 51.70729 | 2.87567 | 26402 ft | 392 kts | 260° |
| 2026-05-04 22:49 | 51.70347 | 2.83248 | 25848 ft | 387 kts | 260° |
| 2026-05-04 22:49 | 51.69966 | 2.78975 | 25306 ft | 382 kts | 261° |
| 2026-05-04 22:49 | 51.69587 | 2.74750 | 24782 ft | 381 kts | 261° |
| 2026-05-04 22:49 | 51.69209 | 2.70538 | 24289 ft | 378 kts | 261° |
| 2026-05-04 22:50 | 51.68831 | 2.66353 | 23799 ft | 375 kts | 262° |
| 2026-05-04 22:50 | 51.68458 | 2.62212 | 23255 ft | 372 kts | 262° |
| 2026-05-04 22:50 | 51.68095 | 2.58097 | 22696 ft | 371 kts | 262° |
| 2026-05-04 22:50 | 51.67728 | 2.53993 | 22166 ft | 370 kts | 262° |
| 2026-05-04 22:51 | 51.67362 | 2.49909 | 21652 ft | 367 kts | 262° |
| 2026-05-04 22:51 | 51.66994 | 2.45855 | 21148 ft | 363 kts | 262° |
| 2026-05-04 22:51 | 51.66624 | 2.41834 | 20653 ft | 361 kts | 262° |
| 2026-05-04 22:51 | 51.66256 | 2.37841 | 20169 ft | 362 kts | 261° |
| 2026-05-04 22:52 | 51.65889 | 2.33872 | 19702 ft | 362 kts | 261° |
| 2026-05-04 22:52 | 51.65520 | 2.29888 | 19247 ft | 359 kts | 261° |
| 2026-05-04 22:52 | 51.65147 | 2.25878 | 18784 ft | 356 kts | 261° |
| 2026-05-04 22:52 | 51.64785 | 2.22006 | 18341 ft | 353 kts | 261° |
| 2026-05-04 22:53 | 51.64418 | 2.18091 | 17835 ft | 352 kts | 261° |
| 2026-05-04 22:53 | 51.64051 | 2.14203 | 17343 ft | 351 kts | 261° |
| 2026-05-04 22:53 | 51.63869 | 2.10311 | 16812 ft | 349 kts | 276° |
| 2026-05-04 22:53 | 51.64463 | 2.06539 | 16357 ft | 347 kts | 289° |
| 2026-05-04 22:54 | 51.65343 | 2.02938 | 15929 ft | 345 kts | 291° |
| 2026-05-04 22:54 | 51.66237 | 1.99360 | 15503 ft | 343 kts | 291° |
| 2026-05-04 22:54 | 51.67086 | 1.95773 | 15059 ft | 342 kts | 290° |
| 2026-05-04 22:54 | 51.67898 | 1.92192 | 14641 ft | 337 kts | 289° |
| 2026-05-04 22:55 | 51.68687 | 1.88667 | 14215 ft | 331 kts | 289° |
| 2026-05-04 22:55 | 51.69456 | 1.85207 | 13797 ft | 326 kts | 289° |
| 2026-05-04 22:55 | 51.70211 | 1.81800 | 13349 ft | 320 kts | 290° |
| 2026-05-04 22:55 | 51.70955 | 1.78444 | 12913 ft | 315 kts | 289° |
| 2026-05-04 22:56 | 51.71685 | 1.75142 | 12490 ft | 310 kts | 289° |
| 2026-05-04 22:56 | 51.72402 | 1.71895 | 12089 ft | 305 kts | 289° |
| 2026-05-04 22:56 | 51.73107 | 1.68694 | 11694 ft | 300 kts | 289° |
| 2026-05-04 22:56 | 51.73801 | 1.65544 | 11315 ft | 296 kts | 289° |
| 2026-05-04 22:57 | 51.74482 | 1.62436 | 10939 ft | 291 kts | 288° |
| 2026-05-04 22:57 | 51.74780 | 1.59242 | 10570 ft | 287 kts | 270° |
| 2026-05-04 22:57 | 51.74613 | 1.56053 | 10216 ft | 283 kts | 263° |
| 2026-05-04 22:57 | 51.74329 | 1.52930 | 9878 ft | 279 kts | 263° |
| 2026-05-04 22:58 | 51.74071 | 1.49844 | 9503 ft | 275 kts | 263° |
| 2026-05-04 22:58 | 51.73482 | 1.46942 | 9094 ft | 274 kts | 239° |
| 2026-05-04 22:58 | 51.72397 | 1.44517 | 9129 ft | 256 kts | 233° |
| 2026-05-04 22:58 | 51.71381 | 1.42402 | 9729 ft | 221 kts | 233° |
| 2026-05-04 22:59 | 51.70507 | 1.40519 | 10746 ft | 201 kts | 234° |
| 2026-05-04 22:59 | 51.69703 | 1.38742 | 11499 ft | 193 kts | 234° |
| 2026-05-04 22:59 | 51.68922 | 1.37039 | 12081 ft | 190 kts | 233° |
| 2026-05-04 22:59 | 51.68120 | 1.35324 | 12602 ft | 189 kts | 232° |
| 2026-05-04 23:00 | 51.67339 | 1.33658 | 13059 ft | 189 kts | 232° |